Time;durP1;ratioP1;P1;durP2;ratioP2;P2;SDS_P1;SDS_P2;PMS_P1;PMS_P2;Temp;Humidity;BMP_temperature;BMP_pressure;BME280_temperature;BME280_humidity;BME280_pressure;Samples;Min_cycle;Max_cycle;Signal;HPM_P1;HPM_P2
2021/12/06 00:01:43;;;;;;;2.22;2.03;;;22.00;46.40;;;;;;5035292;28;20187;-66
2021/12/06 00:04:22;;;;;;;2.40;2.10;;;22.00;46.50;;;;;;5035540;28;20174;-66
2021/12/06 00:06:53;;;;;;;2.42;2.22;;;22.00;46.40;;;;;;5103099;22;20247;-69
2021/12/06 00:09:25;;;;;;;2.42;2.22;;;22.00;46.40;;;;;;5054817;28;20195;-69
2021/12/06 00:11:57;;;;;;;2.33;2.13;;;22.00;47.10;;;;;;5056050;28;20201;-69
2021/12/06 00:14:37;;;;;;;2.25;2.05;;;22.00;46.40;;;;;;5071936;28;20185;-70
2021/12/06 00:17:10;;;;;;;2.50;2.30;;;22.00;46.30;;;;;;5071898;28;20213;-69
2021/12/06 00:19:42;;;;;;;2.63;2.42;;;22.00;46.40;;;;;;5089055;28;20168;-69
2021/12/06 00:22:15;;;;;;;2.58;2.20;;;22.00;46.40;;;;;;5055678;28;20247;-69
2021/12/06 00:24:42;;;;;;;2.65;2.10;;;22.00;46.30;;;;;;5088713;28;20185;-69
2021/12/06 00:27:07;;;;;;;2.35;2.15;;;22.00;46.40;;;;;;5055218;28;20781;-70
2021/12/06 00:29:34;;;;;;;2.53;2.33;;;22.00;46.40;;;;;;5055245;28;20213;-69
2021/12/06 00:31:59;;;;;;;2.65;2.45;;;22.00;46.40;;;;;;5055483;28;20205;-69
2021/12/06 00:34:32;;;;;;;2.25;2.05;;;22.00;46.50;;;;;;5071911;28;20190;-70
2021/12/06 00:37:16;;;;;;;2.85;2.50;;;22.00;46.50;;;;;;5071536;28;20305;-69
2021/12/06 00:39:45;;;;;;;2.60;2.40;;;22.00;46.50;;;;;;5055153;28;20166;-70
2021/12/06 00:42:12;;;;;;;2.55;2.30;;;22.00;46.50;;;;;;5054918;28;20264;-70
2021/12/06 00:44:38;;;;;;;2.45;2.25;;;22.00;46.50;;;;;;5088414;28;20193;-69
2021/12/06 00:47:05;;;;;;;2.42;2.22;;;22.00;46.40;;;;;;5054786;28;20209;-70
2021/12/06 00:49:32;;;;;;;2.80;2.60;;;22.00;46.40;;;;;;5088153;28;20257;-69
2021/12/06 00:51:58;;;;;;;2.88;2.40;;;22.00;46.30;;;;;;5071316;28;20186;-69
2021/12/06 00:54:24;;;;;;;2.65;2.45;;;22.00;46.30;;;;;;5054838;28;20174;-69
2021/12/06 00:56:50;;;;;;;2.72;2.53;;;22.00;46.30;;;;;;5054523;28;20216;-69
2021/12/06 00:59:16;;;;;;;2.60;2.40;;;22.00;46.30;;;;;;5071394;28;20182;-70
2021/12/06 01:01:42;;;;;;;2.75;2.55;;;22.00;46.30;;;;;;5071427;28;20186;-69
2021/12/06 01:04:09;;;;;;;2.50;2.30;;;22.00;46.30;;;;;;5071446;28;20173;-69
2021/12/06 01:06:35;;;;;;;2.70;2.50;;;21.90;46.30;;;;;;5071202;28;20221;-70
2021/12/06 01:09:03;;;;;;;2.40;2.17;;;22.00;46.40;;;;;;5071062;28;20189;-69
2021/12/06 01:11:29;;;;;;;2.92;2.72;;;22.00;46.30;;;;;;5071158;28;20645;-69
2021/12/06 01:13:55;;;;;;;2.78;2.58;;;22.00;46.40;;;;;;5071134;28;20211;-69
2021/12/06 01:16:21;;;;;;;2.47;2.28;;;22.00;46.50;;;;;;5071002;28;20252;-69
2021/12/06 01:18:47;;;;;;;2.40;2.20;;;22.00;46.40;;;;;;5071049;28;20158;-69
2021/12/06 01:24:00;;;;;;;2.40;2.20;;;22.00;46.40;;;;;;5071320;28;20272;-69
2021/12/06 01:31:48;;;;;;;2.78;2.55;;;22.00;46.30;;;;;;5071086;28;20205;-69
2021/12/06 01:39:47;;;;;;;2.55;2.35;;;21.90;46.10;;;;;;5071048;28;20256;-69
2021/12/06 01:42:14;;;;;;;2.50;2.30;;;22.00;46.40;;;;;;5071135;28;20660;-70
2021/12/06 01:44:44;;;;;;;2.58;2.38;;;22.00;46.40;;;;;;5054342;28;20170;-69
2021/12/06 01:47:19;;;;;;;2.88;2.47;;;22.00;46.40;;;;;;5070840;28;20181;-69
2021/12/06 01:50:00;;;;;;;2.58;2.38;;;22.00;46.40;;;;;;5053884;28;20177;-69
2021/12/06 01:52:39;;;;;;;2.80;2.58;;;22.00;46.30;;;;;;5070874;28;20224;-70
2021/12/06 01:55:10;;;;;;;2.40;2.20;;;22.00;46.20;;;;;;5070831;28;20202;-69
2021/12/06 01:57:36;;;;;;;3.13;2.85;;;22.00;46.20;;;;;;5070773;28;20231;-69
2021/12/06 02:00:09;;;;;;;2.80;2.58;;;22.00;46.10;;;;;;5070795;28;20842;-70
2021/12/06 02:02:42;;;;;;;3.80;2.65;;;22.00;46.20;;;;;;5072041;28;20174;-69
2021/12/06 02:05:10;;;;;;;2.60;2.40;;;22.00;46.30;;;;;;5074121;28;20209;-69
2021/12/06 02:07:36;;;;;;;2.80;2.60;;;22.00;46.30;;;;;;5074674;28;20186;-69
2021/12/06 02:10:06;;;;;;;3.05;2.67;;;22.00;46.30;;;;;;5074484;28;20182;-69
2021/12/06 02:12:34;;;;;;;2.78;2.50;;;22.00;46.30;;;;;;5074554;28;20787;-69
2021/12/06 02:15:06;;;;;;;2.50;2.30;;;22.00;46.30;;;;;;5074569;28;20205;-69
2021/12/06 02:17:40;;;;;;;3.00;2.70;;;22.00;46.30;;;;;;5057754;28;20201;-69
2021/12/06 02:20:23;;;;;;;2.58;2.38;;;22.00;46.30;;;;;;5074614;28;20174;-69
2021/12/06 02:22:50;;;;;;;2.88;2.67;;;22.00;46.30;;;;;;5074565;28;20174;-69
2021/12/06 02:25:18;;;;;;;2.80;2.60;;;22.00;46.20;;;;;;5074107;28;20288;-69
2021/12/06 02:27:48;;;;;;;2.72;2.53;;;22.00;46.20;;;;;;5074295;28;20181;-69
2021/12/06 02:30:17;;;;;;;2.80;2.60;;;22.00;46.30;;;;;;5057447;28;20205;-69
2021/12/06 02:32:44;;;;;;;2.50;2.30;;;22.00;46.30;;;;;;5074398;28;20277;-69
2021/12/06 02:35:16;;;;;;;2.83;2.40;;;22.00;46.20;;;;;;5073955;28;20209;-69
2021/12/06 02:37:42;;;;;;;2.63;2.42;;;22.00;46.10;;;;;;5057393;28;20209;-69
2021/12/06 02:40:16;;;;;;;2.55;2.35;;;22.00;46.20;;;;;;5073996;28;20186;-69
2021/12/06 02:42:45;;;;;;;2.58;2.38;;;22.00;46.20;;;;;;5074406;28;20186;-70
2021/12/06 02:45:15;;;;;;;2.50;2.30;;;22.00;46.20;;;;;;5073920;28;20255;-70
2021/12/06 02:47:41;;;;;;;2.20;2.00;;;22.00;46.20;;;;;;5056828;28;20193;-69
2021/12/06 02:50:12;;;;;;;3.42;2.60;;;22.00;46.20;;;;;;5073565;28;20292;-69
2021/12/06 02:52:40;;;;;;;2.42;2.22;;;22.00;46.30;;;;;;5057488;28;20181;-69
2021/12/06 02:55:28;;;;;;;2.90;2.70;;;22.00;46.30;;;;;;5056984;28;20205;-69
2021/12/06 02:57:58;;;;;;;2.30;2.10;;;22.00;46.30;;;;;;5073500;28;20342;-69
2021/12/06 03:00:26;;;;;;;2.47;2.28;;;22.00;46.20;;;;;;5074845;28;20174;-69
2021/12/06 03:02:52;;;;;;;2.60;2.40;;;22.00;46.00;;;;;;5056916;28;20225;-69
2021/12/06 03:05:18;;;;;;;2.63;2.42;;;22.00;46.00;;;;;;5056971;28;20241;-69
2021/12/06 03:07:47;;;;;;;2.63;2.42;;;22.00;46.10;;;;;;5073325;28;20186;-69
2021/12/06 03:10:13;;;;;;;2.65;2.45;;;21.90;46.10;;;;;;5073404;28;20272;-69
2021/12/06 03:12:39;;;;;;;2.25;2.10;;;21.90;45.90;;;;;;5073468;28;20228;-69
2021/12/06 03:15:06;;;;;;;2.33;2.13;;;22.00;46.10;;;;;;5072263;28;20636;-69
2021/12/06 03:17:34;;;;;;;2.30;2.10;;;21.90;46.00;;;;;;5073002;28;20213;-69
2021/12/06 03:20:03;;;;;;;2.78;2.30;;;22.00;46.20;;;;;;5056779;28;20178;-69
2021/12/06 03:22:33;;;;;;;2.42;2.22;;;22.00;46.20;;;;;;5073198;28;20178;-69
2021/12/06 03:24:59;;;;;;;2.70;2.50;;;22.00;46.30;;;;;;5071452;28;20200;-69
2021/12/06 03:27:26;;;;;;;2.78;2.45;;;22.00;46.20;;;;;;5072598;28;20661;-69
2021/12/06 03:29:54;;;;;;;2.20;2.00;;;21.90;46.20;;;;;;5056993;28;20182;-69
2021/12/06 03:32:20;;;;;;;2.60;2.40;;;22.00;46.20;;;;;;5090161;28;20559;-69
2021/12/06 03:34:46;;;;;;;2.33;2.13;;;22.00;46.20;;;;;;5072900;28;20217;-69
2021/12/06 03:37:14;;;;;;;2.17;1.98;;;22.00;46.20;;;;;;5072762;28;20214;-69
2021/12/06 03:39:47;;;;;;;2.05;1.95;;;22.00;46.20;;;;;;5073027;28;20180;-69
2021/12/06 03:42:23;;;;;;;2.28;2.05;;;22.00;46.20;;;;;;5072745;28;20189;-69
2021/12/06 03:44:52;;;;;;;2.92;2.30;;;22.00;46.10;;;;;;5056543;28;20284;-69
2021/12/06 03:47:26;;;;;;;2.35;2.15;;;22.00;46.10;;;;;;5072576;28;20177;-69
2021/12/06 03:49:55;;;;;;;2.10;2.00;;;22.00;46.10;;;;;;5089648;28;20251;-69
2021/12/06 03:52:22;;;;;;;2.60;2.40;;;21.90;46.00;;;;;;5072548;28;20672;-69
2021/12/06 03:54:50;;;;;;;2.58;2.35;;;21.90;46.10;;;;;;5056174;28;20189;-69
2021/12/06 03:57:19;;;;;;;1.98;1.88;;;21.90;46.00;;;;;;5072533;28;20424;-69
2021/12/06 03:59:47;;;;;;;2.30;2.10;;;22.00;46.20;;;;;;5072398;28;20252;-69
2021/12/06 04:02:14;;;;;;;2.35;2.15;;;21.90;46.10;;;;;;5072428;28;20264;-69
2021/12/06 04:04:41;;;;;;;2.03;1.83;;;22.00;46.10;;;;;;5072315;28;20249;-69
2021/12/06 04:07:09;;;;;;;2.20;2.00;;;21.90;46.10;;;;;;5071503;28;20275;-69
2021/12/06 04:09:38;;;;;;;2.03;1.90;;;22.00;46.20;;;;;;5072045;28;20185;-69
2021/12/06 04:12:08;;;;;;;2.13;1.92;;;22.00;46.20;;;;;;5072120;28;20185;-70
2021/12/06 04:14:37;;;;;;;2.00;1.90;;;22.00;46.70;;;;;;5072529;28;20177;-69
2021/12/06 04:17:04;;;;;;;1.92;1.80;;;22.00;46.20;;;;;;5072168;28;20209;-69
2021/12/06 04:19:30;;;;;;;1.92;1.83;;;22.00;46.20;;;;;;5071737;28;20178;-69
2021/12/06 04:21:58;;;;;;;2.33;2.00;;;22.00;46.20;;;;;;5071982;28;20249;-70
2021/12/06 04:24:24;;;;;;;2.22;2.08;;;22.00;46.10;;;;;;5071782;28;20181;-69
2021/12/06 04:26:51;;;;;;;2.40;2.20;;;22.00;46.00;;;;;;5071497;28;20230;-69
2021/12/06 04:29:18;;;;;;;2.30;2.10;;;22.00;46.00;;;;;;5055359;28;20759;-70
2021/12/06 04:31:53;;;;;;;2.08;1.98;;;22.00;46.10;;;;;;5088815;28;20332;-69
2021/12/06 04:34:22;;;;;;;2.42;2.22;;;22.00;45.90;;;;;;5071866;28;20169;-69
2021/12/06 04:36:48;;;;;;;2.15;1.95;;;22.00;46.60;;;;;;5088756;28;20225;-69
2021/12/06 04:39:19;;;;;;;1.80;1.70;;;22.00;46.00;;;;;;5088418;28;20660;-69
2021/12/06 04:41:47;;;;;;;2.42;2.22;;;22.00;46.00;;;;;;5072032;28;20178;-70
2021/12/06 04:44:15;;;;;;;2.08;1.98;;;21.90;46.00;;;;;;5055400;28;20196;-69
2021/12/06 04:46:42;;;;;;;2.17;1.98;;;22.00;46.10;;;;;;5071718;28;20193;-69
2021/12/06 04:49:08;;;;;;;1.92;1.83;;;22.00;46.10;;;;;;5054374;28;20197;-69
2021/12/06 04:51:39;;;;;;;2.15;1.98;;;21.90;46.00;;;;;;5087881;28;20567;-69
2021/12/06 04:54:07;;;;;;;2.08;1.98;;;21.90;46.00;;;;;;5071408;28;20177;-69
2021/12/06 04:56:51;;;;;;;2.28;2.08;;;22.00;46.20;;;;;;5072450;28;20204;-69
2021/12/06 04:59:44;;;;;;;2.03;1.92;;;22.00;46.10;;;;;;5071079;28;20675;-69
2021/12/06 05:02:22;;;;;;;2.00;1.90;;;22.00;46.00;;;;;;5071655;28;20178;-69
2021/12/06 05:04:55;;;;;;;2.10;1.90;;;22.00;45.80;;;;;;5071171;28;20178;-68
2021/12/06 05:07:48;;;;;;;2.08;1.98;;;22.00;46.00;;;;;;5071248;28;20181;-69
2021/12/06 05:10:16;;;;;;;2.30;2.10;;;22.00;46.10;;;;;;5054942;28;20192;-69
2021/12/06 05:12:45;;;;;;;2.20;1.98;;;22.00;46.10;;;;;;5071253;28;20208;-69
2021/12/06 05:15:11;;;;;;;2.25;1.88;;;22.00;46.10;;;;;;5054381;28;20201;-70
2021/12/06 05:17:38;;;;;;;2.40;2.20;;;22.00;46.10;;;;;;5071221;28;20206;-69
2021/12/06 05:20:06;;;;;;;1.92;1.83;;;22.00;46.10;;;;;;5088129;28;20182;-70
2021/12/06 05:22:34;;;;;;;2.28;2.08;;;22.00;46.10;;;;;;5071113;28;20185;-69
2021/12/06 05:25:00;;;;;;;1.73;1.63;;;22.00;46.10;;;;;;5054226;28;20222;-69
2021/12/06 05:27:29;;;;;;;2.20;2.10;;;22.00;46.00;;;;;;5070853;28;20207;-68
2021/12/06 05:30:02;;;;;;;2.13;1.92;;;22.00;46.00;;;;;;5071017;28;20181;-70
2021/12/06 05:32:33;;;;;;;2.00;1.90;;;22.00;46.00;;;;;;5071284;28;20197;-69
2021/12/06 05:35:06;;;;;;;2.03;1.88;;;21.90;45.80;;;;;;5071223;28;20185;-69
2021/12/06 05:37:56;;;;;;;2.10;1.90;;;22.00;46.00;;;;;;5087657;28;20205;-69
2021/12/06 05:40:29;;;;;;;1.85;1.70;;;21.90;46.60;;;;;;5075000;28;20230;-68
2021/12/06 05:42:56;;;;;;;1.92;1.70;;;21.90;46.00;;;;;;5055191;28;20171;-68
2021/12/06 05:45:28;;;;;;;1.98;1.80;;;22.00;46.10;;;;;;5054908;28;20221;-69
2021/12/06 05:47:55;;;;;;;2.53;1.70;;;22.00;46.10;;;;;;5038550;28;20273;-69
2021/12/06 05:50:23;;;;;;;2.03;1.92;;;22.00;46.10;;;;;;5037997;28;20277;-69
2021/12/06 05:52:52;;;;;;;1.90;1.80;;;22.00;46.10;;;;;;5038140;28;20194;-70
2021/12/06 05:55:20;;;;;;;2.17;1.70;;;22.00;46.10;;;;;;5054971;28;20207;-69
2021/12/06 05:57:47;;;;;;;1.90;1.70;;;22.00;46.10;;;;;;5037728;28;20213;-69
2021/12/06 06:00:18;;;;;;;2.15;2.00;;;21.90;46.00;;;;;;5071348;28;20178;-69
2021/12/06 06:02:46;;;;;;;2.10;2.00;;;22.00;46.00;;;;;;5071562;28;20249;-69
2021/12/06 06:07:41;;;;;;;2.33;2.13;;;22.00;46.00;;;;;;5132821;27;20219;-69
2021/12/06 06:10:08;;;;;;;2.22;2.03;;;22.00;45.90;;;;;;5116643;27;20201;-69
2021/12/06 06:12:34;;;;;;;2.08;1.98;;;22.00;46.00;;;;;;5117432;27;20259;-69
2021/12/06 06:15:00;;;;;;;2.10;2.00;;;22.00;46.10;;;;;;5100105;27;20223;-65
2021/12/06 06:17:27;;;;;;;1.98;1.88;;;22.00;46.10;;;;;;5099750;27;20315;-69
2021/12/06 06:19:58;;;;;;;2.00;1.90;;;22.00;46.10;;;;;;5117512;27;20282;-69
2021/12/06 06:22:24;;;;;;;2.08;1.88;;;22.00;46.10;;;;;;5100143;27;20171;-69
2021/12/06 06:24:50;;;;;;;2.17;2.00;;;22.00;46.10;;;;;;5097586;27;20190;-69
2021/12/06 06:27:16;;;;;;;2.05;1.95;;;22.00;46.10;;;;;;5108258;27;20204;-69
2021/12/06 06:29:42;;;;;;;1.80;1.70;;;22.00;46.10;;;;;;5135736;27;20179;-68
2021/12/06 06:32:08;;;;;;;2.15;1.90;;;21.90;46.10;;;;;;5134795;27;20183;-69
2021/12/06 06:34:34;;;;;;;2.03;1.92;;;22.00;46.10;;;;;;5111744;27;20183;-68
2021/12/06 06:37:01;;;;;;;2.20;2.10;;;22.00;46.20;;;;;;5126045;27;20235;-69
2021/12/06 06:39:27;;;;;;;1.83;1.73;;;22.00;46.20;;;;;;5079606;28;20613;-69
2021/12/06 06:41:55;;;;;;;1.80;1.70;;;22.00;46.20;;;;;;5117203;27;20179;-68
2021/12/06 06:44:21;;;;;;;2.10;2.00;;;22.00;46.20;;;;;;5117410;27;20184;-68
2021/12/06 06:46:49;;;;;;;2.38;2.17;;;22.00;46.10;;;;;;5100159;27;20199;-68
2021/12/06 06:49:18;;;;;;;2.55;2.35;;;22.00;46.10;;;;;;5106009;27;20184;-68
2021/12/06 06:51:46;;;;;;;2.03;1.92;;;22.00;46.00;;;;;;5079936;28;20208;-68
2021/12/06 06:54:14;;;;;;;2.35;1.80;;;22.00;46.00;;;;;;5096658;28;20185;-69
2021/12/06 06:56:40;;;;;;;2.10;1.90;;;22.00;46.00;;;;;;5103198;27;20204;-69
2021/12/06 06:59:06;;;;;;;2.20;2.00;;;22.00;46.10;;;;;;5093596;27;20236;-69
2021/12/06 07:01:32;;;;;;;2.50;2.30;;;22.00;46.10;;;;;;5101248;27;20187;-69
2021/12/06 07:03:59;;;;;;;2.40;2.25;;;22.00;46.00;;;;;;5128783;27;20175;-68
2021/12/06 07:06:27;;;;;;;2.30;2.10;;;22.00;46.20;;;;;;5121060;27;20212;-69
2021/12/06 07:08:56;;;;;;;2.10;2.00;;;22.00;46.20;;;;;;5121777;27;20261;-69
2021/12/06 07:11:24;;;;;;;2.50;2.30;;;22.00;46.20;;;;;;5124666;27;20179;-68
2021/12/06 07:13:51;;;;;;;2.40;2.20;;;22.00;46.10;;;;;;5115799;27;20186;-69
2021/12/06 07:16:18;;;;;;;2.53;2.33;;;22.00;46.20;;;;;;5099460;27;20293;-69
2021/12/06 07:18:45;;;;;;;2.75;2.55;;;22.00;46.20;;;;;;5099425;27;20218;-69
2021/12/06 07:21:13;;;;;;;2.40;2.20;;;22.00;46.20;;;;;;5099633;27;20179;-69
2021/12/06 07:23:41;;;;;;;2.63;2.42;;;22.00;46.20;;;;;;5125058;27;20184;-69
2021/12/06 07:26:14;;;;;;;2.17;2.08;;;22.00;46.20;;;;;;5098838;27;20203;-68
2021/12/06 07:28:43;;;;;;;2.40;2.20;;;22.00;46.20;;;;;;5098593;27;20179;-69
2021/12/06 07:31:12;;;;;;;2.63;2.30;;;22.00;46.20;;;;;;5134556;27;20244;-69
2021/12/06 07:33:39;;;;;;;2.95;2.75;;;22.00;46.10;;;;;;5116368;27;20180;-68
2021/12/06 07:36:06;;;;;;;3.00;2.70;;;22.00;46.10;;;;;;5098789;27;20685;-68
2021/12/06 07:38:34;;;;;;;2.80;2.60;;;22.00;46.10;;;;;;5115444;27;20233;-69
2021/12/06 07:41:01;;;;;;;3.00;2.80;;;22.00;46.10;;;;;;5115897;27;20191;-69
2021/12/06 07:43:27;;;;;;;2.65;2.40;;;22.00;46.20;;;;;;5116059;27;20182;-69
2021/12/06 07:45:53;;;;;;;2.60;2.40;;;21.90;45.90;;;;;;5133114;27;20298;-68
2021/12/06 07:48:20;;;;;;;2.88;2.67;;;22.00;46.20;;;;;;5133019;27;20262;-68
2021/12/06 07:50:46;;;;;;;2.80;2.50;;;22.00;46.20;;;;;;5116156;27;20189;-69
2021/12/06 07:53:11;;;;;;;2.50;2.30;;;22.00;46.00;;;;;;5114965;27;20183;-69
2021/12/06 07:55:37;;;;;;;3.03;2.60;;;22.00;46.10;;;;;;5113587;27;20237;-69
2021/12/06 07:58:07;;;;;;;2.67;2.47;;;22.00;46.70;;;;;;5106389;27;20256;-69
2021/12/06 08:00:40;;;;;;;3.42;3.03;;;22.00;46.20;;;;;;5095685;27;20224;-69
2021/12/06 08:03:08;;;;;;;2.70;2.50;;;22.00;46.20;;;;;;5095271;27;20183;-69
2021/12/06 08:05:38;;;;;;;2.60;2.33;;;22.00;46.20;;;;;;5115473;27;20255;-69
2021/12/06 08:08:23;;;;;;;2.80;2.50;;;22.00;46.20;;;;;;5115119;27;20297;-69
2021/12/06 08:10:54;;;;;;;3.05;2.78;;;22.00;46.30;;;;;;5115499;27;20183;-69
2021/12/06 08:13:27;;;;;;;3.17;2.97;;;22.00;46.20;;;;;;5115410;27;20195;-69
2021/12/06 08:15:57;;;;;;;3.47;3.08;;;22.00;46.20;;;;;;5131505;27;20203;-69
2021/12/06 08:18:23;;;;;;;3.83;3.25;;;22.00;46.20;;;;;;5106575;27;20215;-69
2021/12/06 08:20:50;;;;;;;3.50;3.20;;;22.00;46.00;;;;;;5098532;27;20210;-69
2021/12/06 08:23:17;;;;;;;3.70;3.40;;;22.00;46.20;;;;;;5133551;27;20225;-69
2021/12/06 08:25:46;;;;;;;2.58;2.38;;;21.90;46.10;;;;;;5098246;27;20199;-69
2021/12/06 08:28:15;;;;;;;3.15;2.92;;;22.00;46.00;;;;;;5098360;27;20233;-69
2021/12/06 08:30:41;;;;;;;2.75;2.55;;;22.00;46.30;;;;;;5117332;27;20245;-69
2021/12/06 08:33:07;;;;;;;3.00;2.70;;;22.00;46.20;;;;;;5112925;28;20192;-69
2021/12/06 08:35:45;;;;;;;2.88;2.47;;;22.00;46.30;;;;;;5077809;28;20191;-68
2021/12/06 08:38:13;;;;;;;2.70;2.45;;;22.00;46.30;;;;;;5077530;28;20653;-70
2021/12/06 08:40:42;;;;;;;2.40;2.20;;;22.00;46.30;;;;;;5096840;28;20266;-70
2021/12/06 08:43:16;;;;;;;2.90;2.70;;;22.00;46.30;;;;;;5111553;28;20176;-69
2021/12/06 08:46:02;;;;;;;3.10;2.80;;;22.00;46.30;;;;;;5085023;28;20208;-69
2021/12/06 08:48:33;;;;;;;3.42;3.13;;;22.00;46.30;;;;;;5094115;28;20186;-69
2021/12/06 08:51:07;;;;;;;2.83;2.63;;;22.00;46.20;;;;;;5085375;27;20564;-68
2021/12/06 08:53:33;;;;;;;3.08;2.83;;;22.00;46.00;;;;;;5096035;27;20561;-69
2021/12/06 08:55:59;;;;;;;3.13;2.78;;;22.00;46.00;;;;;;5078383;28;20230;-68
2021/12/06 08:58:25;;;;;;;3.40;3.10;;;22.00;46.20;;;;;;5094359;28;20223;-69
2021/12/06 09:00:51;;;;;;;2.60;2.40;;;22.00;46.20;;;;;;5125374;27;20693;-69
2021/12/06 09:03:17;;;;;;;3.13;2.85;;;22.00;46.20;;;;;;5128643;27;20171;-69
2021/12/06 09:05:49;;;;;;;2.38;2.17;;;22.00;46.20;;;;;;5114089;28;20254;-69
2021/12/06 09:08:16;;;;;;;2.50;2.30;;;22.00;46.20;;;;;;5132645;27;20191;-69
2021/12/06 09:10:49;;;;;;;2.58;2.38;;;22.00;46.30;;;;;;5114320;27;20187;-69
2021/12/06 09:13:17;;;;;;;2.50;2.30;;;22.00;46.20;;;;;;5114385;27;20199;-68
2021/12/06 09:15:43;;;;;;;2.53;2.33;;;22.00;46.30;;;;;;5096378;27;20228;-69
2021/12/06 09:18:09;;;;;;;2.30;2.20;;;22.00;46.20;;;;;;5096326;27;20204;-69
2021/12/06 09:20:39;;;;;;;2.67;2.47;;;22.00;46.20;;;;;;5110922;28;20230;-69
2021/12/06 09:23:07;;;;;;;2.65;2.45;;;22.00;46.20;;;;;;5093485;28;20183;-69
2021/12/06 09:25:34;;;;;;;2.47;2.30;;;22.00;46.90;;;;;;5090486;27;20183;-69
2021/12/06 09:28:02;;;;;;;2.65;2.40;;;22.00;46.20;;;;;;5115377;27;20218;-69
2021/12/06 09:30:33;;;;;;;2.70;2.50;;;22.00;46.20;;;;;;5110379;28;20194;-69
2021/12/06 09:33:03;;;;;;;2.55;2.35;;;22.00;46.10;;;;;;5093520;28;20226;-69
2021/12/06 09:35:31;;;;;;;3.00;2.80;;;22.00;46.10;;;;;;5111934;28;20227;-69
2021/12/06 09:37:59;;;;;;;3.15;2.95;;;22.00;46.10;;;;;;5110551;28;20224;-69
2021/12/06 09:40:28;;;;;;;5.75;5.25;;;22.00;45.90;;;;;;5112273;28;20183;-69
2021/12/06 09:42:57;;;;;;;2.80;2.60;;;22.00;46.10;;;;;;5076787;28;20191;-69
2021/12/06 09:45:29;;;;;;;3.45;3.15;;;22.00;46.20;;;;;;5093843;28;20219;-69
2021/12/06 09:47:55;;;;;;;2.80;2.60;;;22.10;46.20;;;;;;5093665;28;20218;-69
2021/12/06 09:50:41;;;;;;;2.85;2.58;;;22.10;46.20;;;;;;5093795;28;20179;-69
2021/12/06 09:53:10;;;;;;;3.75;3.35;;;22.10;46.20;;;;;;5111693;28;20275;-69
2021/12/06 09:55:38;;;;;;;3.40;3.10;;;22.10;46.30;;;;;;5110777;28;20219;-68
2021/12/06 09:58:06;;;;;;;3.58;2.78;;;22.10;46.30;;;;;;5093408;28;20353;-69
2021/12/06 10:00:41;;;;;;;2.95;2.65;;;22.10;46.20;;;;;;5105371;28;20324;-69
2021/12/06 10:03:08;;;;;;;3.17;2.90;;;22.10;46.20;;;;;;5132266;28;20198;-69
2021/12/06 10:05:36;;;;;;;3.30;3.00;;;22.10;46.20;;;;;;5096987;28;20210;-69
2021/12/06 10:08:03;;;;;;;3.70;3.40;;;22.10;46.10;;;;;;5094783;28;20203;-69
2021/12/06 10:10:30;;;;;;;3.15;2.95;;;22.10;46.20;;;;;;5093510;28;20188;-69
2021/12/06 10:12:57;;;;;;;3.42;3.13;;;22.10;46.20;;;;;;5093714;28;20686;-70
2021/12/06 10:15:28;;;;;;;3.05;2.85;;;22.10;46.20;;;;;;5093341;28;20188;-68
2021/12/06 10:17:56;;;;;;;2.88;2.67;;;22.10;46.00;;;;;;5110091;28;20306;-68
2021/12/06 10:20:24;;;;;;;2.97;2.78;;;22.10;46.20;;;;;;5110509;28;20191;-68
2021/12/06 10:22:51;;;;;;;3.30;3.00;;;22.10;46.20;;;;;;5110578;28;20176;-68
2021/12/06 10:25:18;;;;;;;3.15;2.92;;;22.10;46.20;;;;;;5112280;28;20181;-68
2021/12/06 10:27:57;;;;;;;3.05;2.85;;;22.10;46.20;;;;;;5113815;28;20184;-68
2021/12/06 10:30:25;;;;;;;3.00;2.80;;;22.10;46.40;;;;;;5115438;28;20206;-68
2021/12/06 10:33:11;;;;;;;2.53;2.35;;;22.10;46.40;;;;;;5096096;28;20184;-68
2021/12/06 10:35:49;;;;;;;3.35;2.83;;;22.10;46.40;;;;;;5114260;28;20226;-68
2021/12/06 10:38:25;;;;;;;2.80;2.60;;;22.10;46.40;;;;;;5096358;28;20293;-69
2021/12/06 10:41:01;;;;;;;3.95;3.00;;;22.10;46.40;;;;;;5113777;28;20672;-68
2021/12/06 10:43:27;;;;;;;3.10;2.85;;;22.10;46.40;;;;;;5096611;28;20179;-68
2021/12/06 10:45:55;;;;;;;2.90;2.70;;;22.10;46.40;;;;;;5102265;27;20210;-69
2021/12/06 10:48:27;;;;;;;2.55;2.30;;;22.10;46.30;;;;;;5104069;28;20230;-68
2021/12/06 10:50:53;;;;;;;2.80;2.60;;;22.10;46.30;;;;;;5080067;28;20184;-68
2021/12/06 10:53:27;;;;;;;2.75;2.55;;;22.10;46.40;;;;;;5108233;27;20228;-69
2021/12/06 10:55:56;;;;;;;3.03;2.30;;;22.10;46.30;;;;;;5117776;27;20256;-68
2021/12/06 10:58:30;;;;;;;2.70;2.50;;;22.10;46.30;;;;;;5100369;27;20203;-69
2021/12/06 11:01:08;;;;;;;2.80;2.60;;;22.10;46.40;;;;;;5117859;27;20184;-69
2021/12/06 11:03:37;;;;;;;2.63;2.40;;;22.10;46.40;;;;;;5100616;27;20179;-70
2021/12/06 11:06:20;;;;;;;2.55;2.35;;;22.10;46.40;;;;;;5117317;27;20290;-70
2021/12/06 11:08:53;;;;;;;4.28;2.83;;;22.10;46.30;;;;;;5117327;27;20175;-69
2021/12/06 11:11:28;;;;;;;2.58;2.38;;;22.10;46.20;;;;;;5102625;28;20192;-70
2021/12/06 11:14:20;;;;;;;2.10;1.83;;;22.10;46.40;;;;;;5080094;28;20195;-69
2021/12/06 11:16:52;;;;;;;2.67;2.28;;;22.10;46.40;;;;;;5096974;28;20204;-69
2021/12/06 11:19:22;;;;;;;2.50;2.30;;;22.10;46.40;;;;;;5096676;28;20177;-70
2021/12/06 11:21:49;;;;;;;2.35;2.15;;;22.10;46.40;;;;;;5079978;28;20661;-70
2021/12/06 11:24:22;;;;;;;2.58;2.10;;;22.10;46.40;;;;;;5114798;28;20180;-69
2021/12/06 11:26:52;;;;;;;3.97;2.58;;;22.20;46.50;;;;;;5096639;28;20216;-68
2021/12/06 11:29:40;;;;;;;2.58;2.00;;;22.10;46.50;;;;;;5079301;28;20188;-69
2021/12/06 11:32:33;;;;;;;2.65;2.45;;;22.10;46.50;;;;;;5096668;28;20164;-71
2021/12/06 11:35:15;;;;;;;3.35;1.90;;;22.10;46.30;;;;;;5096798;28;20184;-70
2021/12/06 11:37:49;;;;;;;2.70;2.50;;;22.20;46.60;;;;;;5112316;28;20219;-70
2021/12/06 11:40:17;;;;;;;2.67;2.38;;;22.10;46.50;;;;;;5113402;28;20172;-71
2021/12/06 11:43:00;;;;;;;4.40;2.40;;;22.20;46.50;;;;;;5088367;27;20190;-71
2021/12/06 11:45:49;;;;;;;2.55;2.30;;;22.10;46.50;;;;;;5116878;27;20240;-71
2021/12/06 11:48:37;;;;;;;2.22;2.00;;;22.10;46.40;;;;;;5099770;27;20193;-71
2021/12/06 11:51:16;;;;;;;2.50;2.30;;;22.10;46.40;;;;;;5116774;27;20179;-71
2021/12/06 11:53:58;;;;;;;2.47;2.28;;;22.10;46.30;;;;;;5099597;27;20278;-71
2021/12/06 11:56:33;;;;;;;2.42;2.22;;;22.10;46.40;;;;;;5133657;27;20680;-71
2021/12/06 11:59:06;;;;;;;2.50;2.30;;;22.10;46.40;;;;;;5116616;27;20212;-71
2021/12/06 12:01:40;;;;;;;2.55;2.35;;;22.10;46.50;;;;;;5116701;27;20174;-71
2021/12/06 12:04:24;;;;;;;2.33;2.22;;;22.10;46.50;;;;;;5116328;27;20183;-70
2021/12/06 12:07:01;;;;;;;2.55;1.98;;;22.10;46.40;;;;;;5149909;22;20256;-68
2021/12/06 12:09:29;;;;;;;2.60;2.40;;;22.20;46.50;;;;;;5093179;28;20181;-68
2021/12/06 12:12:22;;;;;;;2.38;2.03;;;22.10;46.40;;;;;;5093520;28;20291;-67
2021/12/06 12:14:57;;;;;;;2.33;2.13;;;22.20;46.50;;;;;;5074979;28;20644;-70
2021/12/06 12:17:31;;;;;;;2.50;2.30;;;22.10;46.50;;;;;;5067213;28;20215;-69
2021/12/06 12:20:00;;;;;;;2.22;2.03;;;22.10;46.50;;;;;;5092405;28;20226;-68
2021/12/06 12:22:28;;;;;;;2.22;2.03;;;22.20;46.50;;;;;;5092291;28;20181;-68
2021/12/06 12:25:03;;;;;;;2.35;2.15;;;22.10;46.50;;;;;;5109275;28;20200;-68
2021/12/06 12:27:41;;;;;;;3.00;1.92;;;22.20;46.50;;;;;;5078833;28;20207;-68
2021/12/06 12:30:08;;;;;;;2.88;1.85;;;22.10;46.50;;;;;;5078929;28;20199;-69
2021/12/06 12:32:35;;;;;;;1.90;1.80;;;22.10;46.40;;;;;;5113801;28;20176;-68
2021/12/06 12:35:11;;;;;;;2.03;1.90;;;22.10;46.40;;;;;;5113704;28;20168;-68
2021/12/06 12:37:40;;;;;;;2.15;2.00;;;22.10;46.40;;;;;;5095037;28;20269;-68
2021/12/06 12:40:11;;;;;;;2.30;1.95;;;22.20;46.40;;;;;;5113525;28;20255;-68
2021/12/06 12:42:38;;;;;;;3.00;2.20;;;22.10;46.40;;;;;;5078405;28;20236;-68
2021/12/06 12:45:06;;;;;;;2.10;1.90;;;22.10;46.40;;;;;;5095420;28;20226;-68
2021/12/06 12:47:35;;;;;;;3.33;2.13;;;22.10;46.40;;;;;;5112664;28;20253;-70
2021/12/06 12:50:18;;;;;;;1.95;1.85;;;22.20;46.50;;;;;;5095289;28;20216;-68
2021/12/06 12:52:49;;;;;;;2.45;1.98;;;22.10;46.40;;;;;;5113230;28;20182;-68
2021/12/06 12:55:29;;;;;;;3.22;1.90;;;22.20;46.50;;;;;;5113307;28;20639;-68
2021/12/06 12:58:19;;;;;;;2.03;1.90;;;22.10;46.50;;;;;;5094709;28;20255;-68
2021/12/06 13:00:58;;;;;;;2.35;1.70;;;22.10;46.50;;;;;;5076460;28;20249;-69
2021/12/06 13:03:39;;;;;;;1.90;1.73;;;22.10;46.40;;;;;;5078093;28;20187;-70
2021/12/06 13:06:19;;;;;;;2.30;2.05;;;22.20;46.50;;;;;;5077976;28;20189;-69
2021/12/06 13:08:50;;;;;;;1.83;1.73;;;22.10;46.40;;;;;;5094645;28;20172;-69
2021/12/06 13:11:16;;;;;;;2.78;2.00;;;22.10;46.40;;;;;;5095049;28;20193;-69
2021/12/06 13:13:50;;;;;;;2.10;1.90;;;22.20;46.50;;;;;;5090948;28;20655;-69
2021/12/06 13:16:42;;;;;;;2.05;1.88;;;22.10;46.40;;;;;;5077752;28;20193;-69
2021/12/06 13:19:19;;;;;;;2.67;1.80;;;22.20;46.50;;;;;;5090982;28;20205;-69
2021/12/06 13:21:57;;;;;;;1.80;1.70;;;22.10;46.40;;;;;;5074470;28;20559;-69